createdAt,value
2022-12-09T00:00:51.655Z,15.23
2022-12-09T00:02:59.572Z,15.70
2022-12-09T00:05:05.148Z,14.85
2022-12-09T00:07:10.328Z,14.75
2022-12-09T00:09:18.189Z,15.30
2022-12-09T00:11:24.273Z,16.73
2022-12-09T00:13:30.002Z,15.55
2022-12-09T00:15:34.922Z,15.10
2022-12-09T00:17:40.000Z,15.77
2022-12-09T00:19:47.395Z,13.82
2022-12-09T00:21:52.426Z,14.80
2022-12-09T00:23:59.291Z,15.00
2022-12-09T00:26:04.212Z,14.55
2022-12-09T00:28:11.971Z,14.23
2022-12-09T00:30:17.219Z,13.90
2022-12-09T00:32:22.171Z,14.43
2022-12-09T00:34:27.166Z,13.70
2022-12-09T00:36:35.189Z,14.43
2022-12-09T00:38:40.997Z,13.82
2022-12-09T00:40:46.420Z,14.40
2022-12-09T00:42:51.233Z,14.02
2022-12-09T00:44:56.031Z,14.10
2022-12-09T00:47:01.769Z,14.30
2022-12-09T00:49:07.616Z,14.35
2022-12-09T00:51:16.585Z,13.75
2022-12-09T00:53:24.459Z,14.07
2022-12-09T00:55:29.651Z,12.82
2022-12-09T00:59:39.532Z,13.90
2022-12-09T01:01:44.536Z,13.40
2022-12-09T01:05:54.549Z,14.23
2022-12-09T01:07:59.875Z,12.93
2022-12-09T01:10:08.127Z,12.93
2022-12-09T01:12:13.108Z,14.55
2022-12-09T01:14:17.944Z,14.40
2022-12-09T01:16:26.658Z,13.68
2022-12-09T01:18:31.546Z,14.23
2022-12-09T01:20:37.333Z,14.45
2022-12-09T01:22:42.480Z,14.35
2022-12-09T01:26:55.845Z,14.90
2022-12-09T01:29:01.012Z,15.23
2022-12-09T01:31:10.891Z,13.95
2022-12-09T01:33:18.650Z,13.82
2022-12-09T01:35:23.457Z,13.98
2022-12-09T01:37:28.442Z,14.30
2022-12-09T01:39:33.855Z,14.25
2022-12-09T01:41:38.861Z,13.82
2022-12-09T01:43:47.138Z,13.52
2022-12-09T01:45:53.056Z,13.68
2022-12-09T01:48:03.997Z,13.35
2022-12-09T01:50:10.775Z,12.35
2022-12-09T01:52:21.970Z,13.98
2022-12-09T01:54:27.452Z,13.43
2022-12-09T01:58:39.950Z,13.65
2022-12-09T02:00:48.104Z,14.80
2022-12-09T02:02:55.036Z,14.13
2022-12-09T02:05:03.515Z,14.20
2022-12-09T02:07:13.382Z,15.40
2022-12-09T02:09:19.346Z,15.77
2022-12-09T02:11:37.034Z,15.18
2022-12-09T02:13:50.156Z,14.82
2022-12-09T02:16:04.409Z,14.48
2022-12-09T02:18:16.969Z,13.88
2022-12-09T02:20:29.981Z,13.73
2022-12-09T02:22:40.866Z,13.38
2022-12-09T02:24:58.051Z,13.88
2022-12-09T02:27:11.627Z,14.77
2022-12-09T02:29:32.457Z,15.52
2022-12-09T02:32:08.146Z,14.50
2022-12-09T02:34:20.348Z,15.18
2022-12-09T02:36:36.889Z,15.27
2022-12-09T02:38:45.081Z,13.55
2022-12-09T02:40:55.808Z,14.07
2022-12-09T02:43:06.562Z,14.65
2022-12-09T02:45:14.703Z,14.00
2022-12-09T02:47:26.819Z,13.23
2022-12-09T02:49:37.855Z,14.48
2022-12-09T02:51:46.372Z,14.90
2022-12-09T02:53:58.709Z,18.67
2022-12-09T02:56:05.825Z,18.38
2022-12-09T02:58:12.075Z,17.75
2022-12-09T03:00:18.568Z,17.15
2022-12-09T03:02:29.166Z,16.58
2022-12-09T03:04:36.842Z,17.10
2022-12-09T03:06:47.039Z,16.45
2022-12-09T03:09:00.133Z,19.83
2022-12-09T03:11:07.130Z,20.48
2022-12-09T03:13:17.621Z,19.77
2022-12-09T03:15:27.011Z,18.25
2022-12-09T03:17:36.236Z,17.15
2022-12-09T03:19:47.875Z,16.67
2022-12-09T03:21:59.807Z,16.38
2022-12-09T03:24:06.395Z,15.93
2022-12-09T03:26:11.403Z,16.80
2022-12-09T03:28:22.916Z,16.83
2022-12-09T03:30:28.654Z,16.70
2022-12-09T03:32:36.347Z,14.90
2022-12-09T03:34:52.082Z,15.75
2022-12-09T03:37:00.066Z,14.50
2022-12-09T03:39:07.001Z,15.30
2022-12-09T03:41:28.709Z,14.00
2022-12-09T03:43:40.006Z,14.50
2022-12-09T03:45:45.728Z,14.00
2022-12-09T03:47:50.732Z,14.18
2022-12-09T03:49:58.710Z,14.30
2022-12-09T03:52:08.723Z,14.38
2022-12-09T03:54:20.291Z,14.75
2022-12-09T03:56:29.990Z,13.63
2022-12-09T03:58:37.589Z,12.73
2022-12-09T04:00:42.952Z,13.60
2022-12-09T04:02:48.378Z,12.55
2022-12-09T04:04:54.297Z,12.93
2022-12-09T04:07:01.793Z,12.77
2022-12-09T04:09:07.593Z,12.75
2022-12-09T04:11:12.520Z,12.32
2022-12-09T04:13:17.367Z,12.15
2022-12-09T04:15:22.161Z,12.80
2022-12-09T04:17:27.234Z,13.35
2022-12-09T04:21:38.116Z,12.55
2022-12-09T04:23:45.717Z,13.48
2022-12-09T04:25:52.401Z,12.98
2022-12-09T04:27:57.343Z,13.30
2022-12-09T04:30:02.385Z,13.27
2022-12-09T04:34:13.419Z,11.77
2022-12-09T04:36:20.246Z,12.57
2022-12-09T04:38:25.275Z,12.90
2022-12-09T04:40:32.740Z,12.32
2022-12-09T04:42:37.739Z,13.05
2022-12-09T04:44:42.562Z,12.85
2022-12-09T04:46:47.917Z,11.77
2022-12-09T04:48:52.862Z,13.25
2022-12-09T04:50:57.934Z,12.23
2022-12-09T04:55:09.955Z,12.77
2022-12-09T04:57:17.644Z,13.15
2022-12-09T04:59:22.578Z,13.27
2022-12-09T05:01:31.145Z,11.70
2022-12-09T05:03:37.032Z,13.75
2022-12-09T05:05:43.427Z,12.88
2022-12-09T05:07:49.231Z,13.45
2022-12-09T05:09:54.511Z,12.50
2022-12-09T05:12:02.920Z,12.07
2022-12-09T05:14:10.745Z,12.98
2022-12-09T05:16:20.085Z,14.10
2022-12-09T05:18:25.043Z,12.32
2022-12-09T05:20:30.118Z,13.50
2022-12-09T05:22:35.260Z,13.48
2022-12-09T05:24:41.234Z,12.60
2022-12-09T05:26:46.227Z,12.35
2022-12-09T05:28:51.829Z,12.27
2022-12-09T05:31:03.875Z,11.55
2022-12-09T05:33:09.293Z,14.13
2022-12-09T05:35:14.297Z,13.30
2022-12-09T05:37:19.398Z,13.13
2022-12-09T05:39:24.590Z,13.18
2022-12-09T05:41:29.749Z,13.85
2022-12-09T05:43:35.160Z,13.13
2022-12-09T05:45:40.360Z,12.60
2022-12-09T05:47:47.933Z,13.75
2022-12-09T05:49:53.384Z,14.07
2022-12-09T05:51:58.551Z,13.68
2022-12-09T05:56:10.016Z,14.10
2022-12-09T05:58:14.951Z,13.93
2022-12-09T06:00:20.470Z,12.52
2022-12-09T06:02:25.499Z,12.15
2022-12-09T06:04:33.312Z,12.02
2022-12-09T06:06:38.766Z,12.93
2022-12-09T06:08:45.211Z,12.48
2022-12-09T06:10:50.404Z,13.40
2022-12-09T06:12:57.807Z,12.27
2022-12-09T06:15:02.845Z,12.65
2022-12-09T06:17:07.740Z,13.18
2022-12-09T06:19:14.089Z,11.90
2022-12-09T06:21:23.534Z,14.20
2022-12-09T06:23:28.795Z,13.40
2022-12-09T06:27:38.998Z,13.15
2022-12-09T06:31:48.899Z,12.75
2022-12-09T06:33:56.308Z,11.77
2022-12-09T06:36:04.718Z,13.80
2022-12-09T06:38:12.502Z,12.77
2022-12-09T06:40:17.491Z,13.15
2022-12-09T06:42:22.439Z,13.32
2022-12-09T06:44:28.030Z,14.82
2022-12-09T06:46:33.102Z,13.70
2022-12-09T06:48:38.760Z,13.15
2022-12-09T06:52:48.426Z,13.82
2022-12-09T06:54:56.271Z,15.32
2022-12-09T06:57:01.310Z,13.10
2022-12-09T06:59:09.337Z,12.40
2022-12-09T07:01:16.458Z,13.40
2022-12-09T07:03:21.751Z,15.02
2022-12-09T07:05:27.756Z,14.35
2022-12-09T07:07:33.169Z,13.88
2022-12-09T07:09:38.492Z,13.50
2022-12-09T07:13:51.570Z,14.48
2022-12-09T07:18:03.697Z,14.73
2022-12-09T07:20:10.424Z,13.50
2022-12-09T07:22:16.102Z,15.20
2022-12-09T07:24:21.445Z,14.05
2022-12-09T07:26:26.343Z,14.90
2022-12-09T07:28:33.994Z,15.00
2022-12-09T07:30:40.353Z,14.95
2022-12-09T07:32:45.307Z,14.32
2022-12-09T07:34:51.024Z,13.80
2022-12-09T07:36:56.060Z,14.73
2022-12-09T07:39:03.392Z,14.63
2022-12-09T07:41:10.101Z,14.27
2022-12-09T07:43:15.029Z,13.32
2022-12-09T07:45:22.663Z,15.27
2022-12-09T07:47:28.064Z,14.13
2022-12-09T07:49:33.385Z,13.88
2022-12-09T07:51:38.907Z,13.70
2022-12-09T07:55:49.017Z,14.30
2022-12-09T07:57:53.931Z,14.57
2022-12-09T07:59:59.318Z,14.32
2022-12-09T08:02:07.031Z,14.63
2022-12-09T08:04:13.363Z,15.68
2022-12-09T08:06:21.367Z,14.82
2022-12-09T08:08:26.611Z,14.88
2022-12-09T08:10:31.703Z,14.50
2022-12-09T08:12:36.849Z,15.13
2022-12-09T08:14:41.676Z,14.18
2022-12-09T08:16:46.965Z,14.13
2022-12-09T08:18:56.332Z,13.50
2022-12-09T08:21:02.136Z,14.98
2022-12-09T08:23:07.063Z,15.45
2022-12-09T08:25:13.735Z,15.85
2022-12-09T08:27:19.209Z,16.85
2022-12-09T08:31:32.322Z,16.17
2022-12-09T08:33:42.386Z,16.17
2022-12-09T08:35:50.139Z,17.08
2022-12-09T08:37:55.270Z,16.33
2022-12-09T08:42:05.570Z,15.77
2022-12-09T08:46:17.893Z,15.32
2022-12-09T08:48:23.035Z,15.50
2022-12-09T08:52:40.498Z,15.30
2022-12-09T08:54:46.318Z,17.00
2022-12-09T08:56:52.939Z,16.00
2022-12-09T08:58:58.867Z,15.98
2022-12-09T09:01:04.029Z,16.40
2022-12-09T09:03:09.445Z,15.07
2022-12-09T09:05:15.600Z,17.38
2022-12-09T09:07:21.174Z,17.50
2022-12-09T09:09:29.092Z,16.75
2022-12-09T09:11:34.536Z,19.17
2022-12-09T09:13:40.027Z,17.65
2022-12-09T09:15:45.496Z,19.88
2022-12-09T09:17:52.287Z,20.20
2022-12-09T09:19:58.722Z,19.52
2022-12-09T09:22:04.396Z,18.52
2022-12-09T09:26:21.990Z,19.10
2022-12-09T09:28:31.003Z,19.45
2022-12-09T09:30:37.026Z,18.20
2022-12-09T09:32:42.187Z,17.88
2022-12-09T09:36:56.560Z,17.52
2022-12-09T09:39:02.182Z,17.38
2022-12-09T09:41:19.673Z,18.02
2022-12-09T09:43:30.664Z,17.80
2022-12-09T09:45:35.995Z,18.30
2022-12-09T09:49:57.918Z,19.33
2022-12-09T09:52:08.763Z,18.83
2022-12-09T09:54:16.701Z,19.80
2022-12-09T09:56:29.277Z,20.15
2022-12-09T09:58:44.287Z,19.35
2022-12-09T10:00:58.377Z,20.98
2022-12-09T10:03:07.328Z,20.17
2022-12-09T10:05:23.043Z,19.17
2022-12-09T10:07:39.974Z,20.40
2022-12-09T10:09:57.785Z,20.25
2022-12-09T10:12:06.955Z,20.42
2022-12-09T10:14:20.287Z,21.85
2022-12-09T10:16:29.691Z,21.70
2022-12-09T10:18:40.439Z,21.30
2022-12-09T10:20:46.264Z,22.15
2022-12-09T10:22:55.022Z,20.25
2022-12-09T10:25:02.490Z,19.90
2022-12-09T10:27:17.321Z,21.80
2022-12-09T10:29:31.758Z,20.57
2022-12-09T10:31:36.812Z,19.52
2022-12-09T10:35:48.879Z,18.83
2022-12-09T10:37:59.525Z,19.23
2022-12-09T10:40:22.980Z,18.95
2022-12-09T10:42:41.819Z,19.95
2022-12-09T10:44:49.843Z,18.45
2022-12-09T10:47:01.415Z,19.27
2022-12-09T10:49:06.678Z,18.95
2022-12-09T10:53:20.160Z,19.20
2022-12-09T10:55:30.570Z,19.55
2022-12-09T10:57:35.455Z,21.45
2022-12-09T10:59:42.427Z,21.38
2022-12-09T11:01:55.739Z,19.55
2022-12-09T11:04:15.888Z,20.15
2022-12-09T11:06:27.185Z,20.08
2022-12-09T11:08:33.217Z,18.40
2022-12-09T11:10:39.941Z,18.65
2022-12-09T11:12:45.165Z,19.02
2022-12-09T11:14:56.260Z,18.85
2022-12-09T11:17:16.095Z,18.20
2022-12-09T11:19:30.886Z,18.27
2022-12-09T11:21:38.753Z,18.08
2022-12-09T11:24:02.503Z,16.83
2022-12-09T11:26:10.361Z,17.42
2022-12-09T11:28:26.931Z,18.00
2022-12-09T11:30:35.074Z,17.40
2022-12-09T11:33:03.497Z,17.13
2022-12-09T11:35:09.467Z,15.98
2022-12-09T11:37:14.615Z,17.23
2022-12-09T11:41:42.577Z,16.00
2022-12-09T11:43:51.721Z,16.67
2022-12-09T11:45:56.707Z,15.40
2022-12-09T11:48:29.824Z,15.40
2022-12-09T11:50:42.713Z,14.80
2022-12-09T11:52:48.307Z,15.73
2022-12-09T11:54:59.430Z,13.57
2022-12-09T11:57:06.105Z,14.35
2022-12-09T11:59:18.013Z,13.45
2022-12-09T12:01:29.143Z,13.10
2022-12-09T12:03:40.497Z,13.00
2022-12-09T12:05:47.585Z,13.63
2022-12-09T12:08:02.126Z,13.98
2022-12-09T12:10:15.949Z,12.73
2022-12-09T12:12:26.720Z,13.70
2022-12-09T12:14:33.052Z,13.93
2022-12-09T12:16:49.025Z,14.00
2022-12-09T12:19:01.958Z,13.25
2022-12-09T12:21:22.693Z,12.73
2022-12-09T12:23:38.890Z,12.65
2022-12-09T12:25:54.215Z,12.75
2022-12-09T12:28:15.805Z,12.55
2022-12-09T12:30:24.369Z,11.38
2022-12-09T12:32:40.407Z,11.88
2022-12-09T12:35:02.548Z,11.90
2022-12-09T12:37:25.878Z,11.65
2022-12-09T12:39:47.204Z,11.77
2022-12-09T12:41:58.775Z,11.27
2022-12-09T12:44:25.349Z,10.68
2022-12-09T12:46:44.675Z,10.77
2022-12-09T12:49:17.541Z,10.73
2022-12-09T12:51:36.966Z,9.68
2022-12-09T12:53:49.967Z,10.48
2022-12-09T12:56:02.532Z,10.13
2022-12-09T12:58:13.919Z,11.13
2022-12-09T13:00:24.110Z,9.48
2022-12-09T13:02:41.834Z,10.57
2022-12-09T13:04:54.582Z,10.27
2022-12-09T13:07:08.806Z,9.05
2022-12-09T13:09:18.848Z,10.00
2022-12-09T13:11:26.712Z,9.48
2022-12-09T13:13:37.653Z,10.27
2022-12-09T13:15:48.793Z,10.23
2022-12-09T13:17:54.547Z,9.35
2022-12-09T13:20:04.041Z,10.02
2022-12-09T13:22:24.485Z,10.90
2022-12-09T13:24:38.068Z,11.05
2022-12-09T13:26:51.097Z,8.60
2022-12-09T13:29:02.542Z,9.65
2022-12-09T13:31:11.356Z,8.98
2022-12-09T13:33:31.708Z,9.05
2022-12-09T13:35:43.772Z,7.75
2022-12-09T13:38:02.440Z,8.40
2022-12-09T13:40:30.837Z,8.00
2022-12-09T13:42:56.703Z,8.00
2022-12-09T13:45:08.298Z,8.00
2022-12-09T13:47:27.630Z,7.85
2022-12-09T13:49:32.505Z,8.93
2022-12-09T13:51:48.453Z,7.30
2022-12-09T13:54:07.094Z,8.13
2022-12-09T13:56:21.679Z,7.88
2022-12-09T13:58:46.949Z,8.05
2022-12-09T14:01:06.353Z,8.65
2022-12-09T14:03:28.304Z,8.85
2022-12-09T14:05:39.349Z,8.52
2022-12-09T14:07:51.312Z,7.85
2022-12-09T14:10:03.061Z,9.50
2022-12-09T14:12:09.916Z,12.85
2022-12-09T14:14:56.672Z,9.13
2022-12-09T14:17:03.136Z,8.05
2022-12-09T14:19:49.867Z,9.07
2022-12-09T14:22:24.300Z,7.82
2022-12-09T14:24:38.163Z,8.23
2022-12-09T14:26:47.898Z,8.80
2022-12-09T14:28:58.413Z,8.85
2022-12-09T14:31:08.641Z,8.48
2022-12-09T14:33:25.317Z,8.00
2022-12-09T14:35:41.869Z,8.20
2022-12-09T14:38:07.190Z,8.65
2022-12-09T14:40:29.275Z,8.63
2022-12-09T14:42:50.660Z,8.88
2022-12-09T14:45:03.040Z,9.43
2022-12-09T14:47:19.334Z,11.05
2022-12-09T14:49:26.479Z,9.90
2022-12-09T14:51:39.515Z,8.93
2022-12-09T14:53:44.850Z,9.98
2022-12-09T14:55:49.662Z,11.25
2022-12-09T14:58:00.780Z,10.07
2022-12-09T15:00:08.795Z,9.35
2022-12-09T15:02:23.155Z,9.93
2022-12-09T15:04:33.310Z,12.18
2022-12-09T15:06:38.156Z,14.27
2022-12-09T15:08:44.343Z,10.43
2022-12-09T15:10:49.120Z,11.30
2022-12-09T15:12:58.934Z,12.05
2022-12-09T15:15:09.379Z,10.60
2022-12-09T15:17:23.453Z,11.27
2022-12-09T15:19:59.151Z,10.82
2022-12-09T15:22:00.656Z,10.38
2022-12-09T15:24:06.384Z,12.10
2022-12-09T15:26:24.701Z,10.20
2022-12-09T15:28:35.121Z,10.65
2022-12-09T15:30:40.948Z,11.77
2022-12-09T15:32:47.811Z,12.02
2022-12-09T15:34:53.202Z,12.65
2022-12-09T15:37:00.642Z,13.45
2022-12-09T15:39:09.603Z,14.68
2022-12-09T15:41:26.898Z,14.05
2022-12-09T15:43:37.288Z,12.70
2022-12-09T15:45:46.364Z,14.63
2022-12-09T15:47:54.564Z,12.55
2022-12-09T15:50:08.403Z,11.75
2022-12-09T15:52:14.686Z,13.88
2022-12-09T15:54:27.276Z,17.58
2022-12-09T15:56:38.450Z,14.40
2022-12-09T15:58:51.028Z,16.83
2022-12-09T16:01:00.036Z,18.63
2022-12-09T16:03:04.864Z,18.95
2022-12-09T16:05:12.735Z,20.88
2022-12-09T16:07:22.221Z,18.35
2022-12-09T16:09:27.076Z,18.15
2022-12-09T16:11:39.856Z,25.33
2022-12-09T16:14:05.513Z,25.70
2022-12-09T16:16:26.940Z,21.65
2022-12-09T16:18:36.300Z,19.27
2022-12-09T16:20:45.519Z,16.70
2022-12-09T16:22:52.411Z,18.40
2022-12-09T16:25:14.512Z,17.33
2022-12-09T16:27:24.689Z,18.90
2022-12-09T16:29:36.353Z,16.80
2022-12-09T16:31:41.263Z,15.93
2022-12-09T16:33:50.868Z,15.20
2022-12-09T16:36:02.354Z,14.40
2022-12-09T16:38:19.226Z,13.90
2022-12-09T16:40:53.908Z,14.85
2022-12-09T16:43:22.592Z,14.80
2022-12-09T16:45:37.963Z,15.88
2022-12-09T16:47:42.876Z,16.55
2022-12-09T16:49:49.777Z,15.77
2022-12-09T16:51:54.609Z,14.85
2022-12-09T16:54:02.871Z,15.02
2022-12-09T16:56:08.076Z,17.20
2022-12-09T16:58:15.715Z,16.25
2022-12-09T17:00:21.433Z,14.68
2022-12-09T17:02:35.957Z,15.23
2022-12-09T17:04:43.740Z,14.82
2022-12-09T17:07:04.027Z,15.75
2022-12-09T17:09:08.982Z,16.13
2022-12-09T17:11:16.938Z,14.98
2022-12-09T17:13:21.824Z,16.45
2022-12-09T17:15:29.634Z,16.40
2022-12-09T17:17:37.085Z,16.10
2022-12-09T17:19:44.251Z,16.15
2022-12-09T17:21:49.257Z,14.98
2022-12-09T17:24:03.373Z,15.02
2022-12-09T17:26:11.038Z,16.42
2022-12-09T17:28:15.874Z,17.65
2022-12-09T17:30:20.819Z,16.92
2022-12-09T17:32:26.548Z,17.77
2022-12-09T17:34:34.169Z,16.52
2022-12-09T17:36:39.053Z,15.23
2022-12-09T17:38:44.643Z,15.80
2022-12-09T17:40:49.837Z,18.33
2022-12-09T17:45:01.024Z,16.70
2022-12-09T17:47:05.790Z,16.95
2022-12-09T17:49:10.573Z,16.10
2022-12-09T17:51:19.283Z,16.88
2022-12-09T17:53:24.083Z,21.13
2022-12-09T17:55:29.179Z,17.98
2022-12-09T17:59:38.901Z,16.10
2022-12-09T18:01:44.055Z,18.05
2022-12-09T18:03:57.880Z,26.45
2022-12-09T18:06:05.180Z,17.63
2022-12-09T18:08:12.719Z,86.65
2022-12-09T18:10:18.062Z,29.83
2022-12-09T18:12:23.133Z,28.23
2022-12-09T18:14:28.846Z,21.63
2022-12-09T18:16:34.064Z,31.67
2022-12-09T18:20:43.804Z,21.55
2022-12-09T18:22:48.835Z,19.08
2022-12-09T18:24:56.672Z,16.83
2022-12-09T18:27:01.521Z,17.67
2022-12-09T18:29:06.403Z,16.48
2022-12-09T18:31:13.150Z,18.48
2022-12-09T18:33:18.032Z,28.17
2022-12-09T18:35:22.830Z,19.13
2022-12-09T18:37:27.718Z,18.25
2022-12-09T18:39:32.615Z,18.63
2022-12-09T18:41:39.998Z,17.88
2022-12-09T18:43:46.869Z,18.50
2022-12-09T18:45:51.765Z,18.88
2022-12-09T18:47:57.043Z,18.65
2022-12-09T18:50:01.870Z,22.45
2022-12-09T18:52:06.850Z,20.77
2022-12-09T18:54:13.478Z,22.10
2022-12-09T18:56:19.741Z,21.95
2022-12-09T18:58:49.542Z,20.25
2022-12-09T19:00:52.216Z,19.35
2022-12-09T19:02:57.142Z,18.23
2022-12-09T19:05:02.040Z,18.55
2022-12-09T19:07:06.986Z,17.75
2022-12-09T19:09:14.490Z,19.13
2022-12-09T19:11:19.626Z,18.52
2022-12-09T19:13:26.993Z,17.50
2022-12-09T19:15:31.942Z,18.08
2022-12-09T19:17:37.128Z,18.58
2022-12-09T19:19:42.027Z,20.80
2022-12-09T19:21:47.673Z,18.85
2022-12-09T19:23:53.182Z,20.30
2022-12-09T19:25:57.916Z,19.55
2022-12-09T19:28:02.684Z,19.75
2022-12-09T19:30:11.267Z,20.13
2022-12-09T19:32:51.047Z,19.75
2022-12-09T19:34:41.440Z,19.65
2022-12-09T19:36:47.824Z,21.33
2022-12-09T19:38:52.724Z,23.70
2022-12-09T19:41:00.087Z,19.23
2022-12-09T19:43:04.904Z,19.45
2022-12-09T19:45:14.463Z,22.15
2022-12-09T19:47:19.589Z,21.77
2022-12-09T19:49:25.997Z,20.30
2022-12-09T19:51:30.993Z,18.33
2022-12-09T19:55:41.286Z,18.88
2022-12-09T19:57:46.067Z,19.38
2022-12-09T19:59:50.853Z,17.98
2022-12-09T20:01:58.541Z,21.58
2022-12-09T20:04:25.255Z,19.17
2022-12-09T20:06:30.761Z,17.70
2022-12-09T20:10:46.221Z,19.70
2022-12-09T20:12:51.149Z,20.10
2022-12-09T20:14:55.949Z,22.00
2022-12-09T20:17:04.371Z,22.15
2022-12-09T20:19:09.247Z,19.08
2022-12-09T20:21:16.157Z,20.83
2022-12-09T20:23:20.968Z,19.05
2022-12-09T20:25:25.739Z,20.05
2022-12-09T20:27:30.576Z,21.33
2022-12-09T20:29:38.039Z,20.10
2022-12-09T20:31:45.842Z,21.33
2022-12-09T20:33:55.638Z,19.98
2022-12-09T20:36:06.412Z,19.50
2022-12-09T20:38:11.156Z,20.02
2022-12-09T20:40:16.025Z,20.70
2022-12-09T20:42:20.805Z,18.40
2022-12-09T20:44:25.634Z,19.83
2022-12-09T20:46:32.317Z,18.38
2022-12-09T20:48:38.106Z,19.50
2022-12-09T20:50:45.487Z,18.23
2022-12-09T20:52:50.396Z,20.13
2022-12-09T20:54:56.486Z,19.55
2022-12-09T20:57:01.714Z,21.15
2022-12-09T21:01:14.976Z,23.13
2022-12-09T21:03:20.562Z,22.17
2022-12-09T21:05:25.348Z,23.58
2022-12-09T21:07:32.692Z,23.23
2022-12-09T21:09:37.520Z,23.20
2022-12-09T21:11:42.539Z,22.95
2022-12-09T21:13:53.672Z,23.42
2022-12-09T21:16:06.483Z,21.73
2022-12-09T21:18:11.532Z,22.73
2022-12-09T21:20:16.740Z,24.10
2022-12-09T21:22:21.638Z,22.48
2022-12-09T21:24:29.052Z,22.60
2022-12-09T21:26:34.047Z,21.88
2022-12-09T21:28:40.287Z,22.33
2022-12-09T21:30:45.129Z,22.05
2022-12-09T21:32:49.878Z,20.73
2022-12-09T21:34:58.069Z,18.35
2022-12-09T21:37:02.854Z,19.13
2022-12-09T21:39:09.619Z,18.13
2022-12-09T21:41:18.682Z,17.83
2022-12-09T21:43:23.475Z,19.52
2022-12-09T21:45:28.402Z,18.67
2022-12-09T21:47:33.200Z,18.58
2022-12-09T21:49:37.938Z,18.83
2022-12-09T21:51:43.036Z,18.38
2022-12-09T21:53:48.201Z,21.35
2022-12-09T21:55:57.506Z,21.45
2022-12-09T21:58:05.352Z,20.35
2022-12-09T22:00:13.636Z,22.25
2022-12-09T22:02:18.514Z,21.58
2022-12-09T22:04:23.866Z,23.15
2022-12-09T22:06:29.520Z,21.98
2022-12-09T22:08:34.452Z,20.80
2022-12-09T22:10:39.863Z,20.45
2022-12-09T22:12:44.661Z,22.52
2022-12-09T22:14:55.686Z,21.90
2022-12-09T22:17:01.103Z,19.58
2022-12-09T22:19:09.042Z,22.38
2022-12-09T22:21:24.850Z,21.13
2022-12-09T22:23:30.636Z,21.90
2022-12-09T22:25:35.440Z,25.23
2022-12-09T22:27:41.425Z,23.42
2022-12-09T22:29:46.268Z,22.15
2022-12-09T22:31:53.665Z,19.50
2022-12-09T22:34:02.604Z,19.83
2022-12-09T22:36:08.205Z,20.80
2022-12-09T22:38:14.714Z,21.75
2022-12-09T22:40:20.484Z,21.38
2022-12-09T22:42:25.528Z,20.73
2022-12-09T22:44:30.374Z,20.70
2022-12-09T22:46:36.784Z,19.55
2022-12-09T22:48:44.641Z,20.30
2022-12-09T22:50:49.447Z,21.60
2022-12-09T22:52:54.335Z,19.15
2022-12-09T22:54:59.088Z,18.85
2022-12-09T22:57:03.840Z,18.60
2022-12-09T22:59:09.203Z,17.77
2022-12-09T23:01:14.909Z,21.08
2022-12-09T23:03:19.839Z,21.25
2022-12-09T23:05:33.225Z,19.35
2022-12-09T23:07:40.297Z,18.27
2022-12-09T23:09:45.435Z,17.83
2022-12-09T23:11:51.629Z,20.25
2022-12-09T23:13:57.123Z,18.40
2022-12-09T23:16:03.645Z,17.33
2022-12-09T23:18:08.909Z,17.50
2022-12-09T23:20:14.806Z,19.05
2022-12-09T23:22:22.200Z,19.58
2022-12-09T23:24:27.024Z,19.50
2022-12-09T23:26:33.905Z,20.20
2022-12-09T23:28:39.884Z,18.00
2022-12-09T23:30:44.753Z,17.60
2022-12-09T23:32:50.003Z,17.30
2022-12-09T23:34:54.809Z,19.17
2022-12-09T23:36:59.710Z,19.25
2022-12-09T23:39:11.103Z,18.38
2022-12-09T23:41:17.400Z,17.75
2022-12-09T23:43:22.211Z,18.45
2022-12-09T23:45:27.040Z,17.98
2022-12-09T23:47:31.795Z,18.45
2022-12-09T23:49:36.949Z,18.35
2022-12-09T23:51:44.146Z,18.95
2022-12-09T23:53:50.534Z,18.48
2022-12-09T23:55:58.095Z,18.45
2022-12-09T23:58:02.932Z,19.95
